Time;durP1;ratioP1;P1;durP2;ratioP2;P2;SDS_P1;SDS_P2;PMS_P1;PMS_P2;Temp;Humidity;BMP_temperature;BMP_pressure;BME280_temperature;BME280_humidity;BME280_pressure;Samples;Min_cycle;Max_cycle;Signal;HPM_P1;HPM_P2
2022/05/24 00:01:29;;;;;;;6.20;5.47;;;17.40;99.90;;;;;;5106839;27;20231;-66
2022/05/24 00:03:58;;;;;;;11.60;6.00;;;17.40;99.90;;;;;;5107964;27;20240;-67
2022/05/24 00:06:31;;;;;;;7.57;5.73;;;17.40;99.90;;;;;;5109605;27;20246;-66
2022/05/24 00:09:00;;;;;;;6.40;5.70;;;17.40;99.90;;;;;;5107721;27;20241;-66
2022/05/24 00:11:32;;;;;;;5.90;5.40;;;17.30;99.90;;;;;;5110450;27;20734;-66
2022/05/24 00:14:00;;;;;;;6.43;5.83;;;17.40;99.90;;;;;;5108904;27;20713;-64
2022/05/24 00:16:29;;;;;;;7.53;5.90;;;17.40;99.90;;;;;;5107828;27;20250;-67
2022/05/24 00:18:57;;;;;;;6.33;5.73;;;17.40;99.90;;;;;;5108217;27;20247;-66
2022/05/24 00:21:25;;;;;;;7.40;6.70;;;17.40;99.90;;;;;;5108495;27;20691;-65
2022/05/24 00:23:55;;;;;;;6.87;6.27;;;17.40;99.90;;;;;;5107965;27;20261;-67
2022/05/24 00:26:29;;;;;;;7.10;6.40;;;17.50;99.90;;;;;;5111546;27;20230;-67
2022/05/24 00:28:58;;;;;;;7.33;6.63;;;17.40;99.90;;;;;;5107846;27;20592;-66
2022/05/24 00:31:26;;;;;;;8.00;6.80;;;17.40;99.90;;;;;;5108168;27;20245;-64
2022/05/24 00:33:54;;;;;;;6.83;6.23;;;17.40;99.90;;;;;;5092605;27;20279;-67
2022/05/24 00:36:22;;;;;;;7.77;6.97;;;17.40;99.90;;;;;;5108711;27;20594;-67
2022/05/24 00:38:51;;;;;;;8.67;7.77;;;17.40;99.90;;;;;;5110052;27;20230;-66
2022/05/24 00:41:25;;;;;;;9.13;8.07;;;17.50;99.90;;;;;;5110296;27;20248;-65
2022/05/24 00:43:58;;;;;;;8.63;7.13;;;17.40;99.90;;;;;;5105142;27;20329;-67
2022/05/24 00:46:29;;;;;;;8.43;7.60;;;17.40;99.90;;;;;;5108958;27;20247;-67
2022/05/24 00:49:01;;;;;;;9.10;8.20;;;17.40;99.90;;;;;;5110372;27;20243;-66
2022/05/24 00:51:35;;;;;;;8.73;7.90;;;17.30;99.90;;;;;;5108572;27;20249;-65
2022/05/24 00:54:04;;;;;;;9.60;8.40;;;17.30;99.90;;;;;;5108293;27;20237;-66
2022/05/24 00:56:50;;;;;;;8.63;7.80;;;17.30;99.90;;;;;;5110405;27;20234;-66
2022/05/24 00:59:27;;;;;;;8.87;8.07;;;17.30;99.90;;;;;;5110780;27;20249;-66
2022/05/24 01:01:56;;;;;;;9.10;8.30;;;17.30;99.90;;;;;;5106398;27;20244;-66
2022/05/24 01:04:24;;;;;;;9.53;8.50;;;17.30;99.90;;;;;;5106944;27;20234;-65
2022/05/24 01:06:52;;;;;;;7.73;6.97;;;17.20;99.90;;;;;;5107454;27;20585;-67
2022/05/24 01:09:26;;;;;;;5.77;5.17;;;17.10;99.90;;;;;;5107961;27;20245;-65
2022/05/24 01:11:58;;;;;;;4.90;4.40;;;16.90;99.90;;;;;;5108987;27;20235;-65
2022/05/24 01:14:27;;;;;;;4.30;3.90;;;16.80;99.90;;;;;;5106357;27;20287;-64
2022/05/24 01:16:56;;;;;;;5.87;4.17;;;16.80;99.90;;;;;;5109604;27;20245;-64
2022/05/24 01:19:36;;;;;;;4.93;4.50;;;16.80;99.90;;;;;;5107831;27;20234;-64
2022/05/24 01:22:21;;;;;;;5.20;4.73;;;16.80;99.90;;;;;;5107512;27;20303;-67
2022/05/24 01:24:56;;;;;;;4.93;4.50;;;16.70;99.90;;;;;;5107797;27;20727;-66
2022/05/24 01:27:26;;;;;;;5.33;4.93;;;16.70;99.90;;;;;;5107304;27;20294;-67
2022/05/24 01:29:54;;;;;;;5.07;4.60;;;16.60;99.90;;;;;;5108535;27;20225;-67
2022/05/24 01:37:57;;;;;;;5.40;4.90;;;16.60;99.90;;;;;;5108671;27;20237;-67
2022/05/24 01:40:25;;;;;;;5.97;5.47;;;16.50;99.90;;;;;;5108360;27;20605;-64
2022/05/24 01:42:55;;;;;;;7.67;5.60;;;16.50;99.90;;;;;;5105440;27;20299;-66
2022/05/24 01:45:28;;;;;;;6.70;5.97;;;16.50;99.90;;;;;;5107279;27;20242;-65
2022/05/24 01:48:00;;;;;;;6.47;5.87;;;16.40;99.90;;;;;;5107464;27;20241;-65
2022/05/24 01:50:30;;;;;;;7.00;6.27;;;16.40;99.90;;;;;;5108300;27;20242;-66
2022/05/24 01:53:01;;;;;;;7.80;6.70;;;16.40;99.90;;;;;;5105153;27;20248;-66
2022/05/24 01:55:33;;;;;;;8.20;6.70;;;16.30;99.90;;;;;;5107620;27;20772;-67
2022/05/24 01:58:06;;;;;;;7.47;6.87;;;16.20;99.90;;;;;;5108129;27;20230;-67
2022/05/24 02:00:35;;;;;;;7.20;6.50;;;16.20;99.90;;;;;;5107812;27;20241;-67
2022/05/24 02:03:04;;;;;;;8.27;7.50;;;16.20;99.90;;;;;;5105544;27;20246;-65
2022/05/24 02:05:35;;;;;;;8.17;7.37;;;16.10;99.90;;;;;;5109076;27;20732;-64
2022/05/24 02:08:07;;;;;;;8.40;6.87;;;16.10;99.90;;;;;;5108062;27;20249;-66
2022/05/24 02:10:39;;;;;;;8.13;7.30;;;16.10;99.90;;;;;;5107432;27;21049;-66
2022/05/24 02:13:09;;;;;;;9.00;8.10;;;16.20;99.90;;;;;;5105492;27;20294;-67
2022/05/24 02:15:44;;;;;;;11.60;9.20;;;16.10;99.90;;;;;;5107889;27;20240;-67
2022/05/24 02:18:15;;;;;;;11.73;10.37;;;16.10;99.90;;;;;;5109184;28;20244;-66
2022/05/24 02:20:45;;;;;;;11.67;10.47;;;16.10;99.90;;;;;;5105837;28;20229;-66
2022/05/24 02:23:16;;;;;;;13.33;11.13;;;16.10;99.90;;;;;;5103220;28;20292;-67
2022/05/24 02:25:47;;;;;;;15.20;11.50;;;16.00;99.90;;;;;;5108355;28;20504;-66
2022/05/24 02:28:17;;;;;;;12.60;10.77;;;16.00;99.90;;;;;;5107153;28;20244;-64
2022/05/24 02:30:48;;;;;;;11.73;10.53;;;16.00;99.90;;;;;;5108142;28;20237;-66
2022/05/24 02:33:18;;;;;;;12.03;10.47;;;16.00;99.90;;;;;;5105001;28;20253;-65
2022/05/24 02:35:46;;;;;;;12.87;10.40;;;16.00;99.90;;;;;;5107162;28;20765;-67
2022/05/24 02:38:14;;;;;;;10.63;9.60;;;15.90;99.90;;;;;;5108330;28;20946;-65
2022/05/24 02:43:44;;;;;;;13.43;9.90;;;15.90;99.90;;;;;;5056067;28;20621;-66
2022/05/24 02:46:12;;;;;;;11.50;9.43;;;15.90;99.90;;;;;;5057943;28;20613;-67
2022/05/24 02:48:40;;;;;;;10.53;9.43;;;16.00;99.90;;;;;;5079686;28;20314;-66
2022/05/24 02:51:10;;;;;;;10.27;9.23;;;15.90;99.90;;;;;;5108627;28;20704;-68
2022/05/24 02:53:41;;;;;;;12.03;9.57;;;15.90;99.90;;;;;;5103816;28;20233;-67
2022/05/24 02:56:09;;;;;;;10.17;9.17;;;15.90;99.90;;;;;;5108847;28;20689;-67
2022/05/24 02:58:38;;;;;;;11.33;10.07;;;15.90;99.90;;;;;;5105818;28;20238;-67
2022/05/24 03:01:15;;;;;;;10.60;9.50;;;15.90;99.90;;;;;;5106405;28;20287;-65
2022/05/24 03:03:43;;;;;;;10.40;9.40;;;15.90;99.90;;;;;;5103764;28;20261;-66
2022/05/24 03:06:12;;;;;;;10.90;9.80;;;15.90;99.90;;;;;;5106748;28;20248;-67
2022/05/24 03:11:26;;;;;;;11.13;9.87;;;15.90;99.90;;;;;;5109915;27;20238;-67
2022/05/24 03:16:40;;;;;;;10.40;9.23;;;15.80;99.90;;;;;;5109830;27;20241;-65
2022/05/24 03:19:09;;;;;;;11.80;8.97;;;15.80;99.90;;;;;;5109687;27;20231;-67
2022/05/24 03:21:37;;;;;;;10.57;9.30;;;15.80;99.90;;;;;;5109703;27;20242;-65
2022/05/24 03:24:05;;;;;;;9.93;8.73;;;15.80;99.90;;;;;;5105542;27;20728;-67
2022/05/24 03:26:33;;;;;;;9.77;8.10;;;15.80;99.90;;;;;;5110175;27;20750;-66
2022/05/24 03:29:04;;;;;;;9.87;8.27;;;15.80;99.90;;;;;;5109317;27;20712;-67
2022/05/24 03:31:32;;;;;;;9.77;7.17;;;15.80;99.90;;;;;;5110936;27;21434;-68
2022/05/24 03:34:02;;;;;;;8.30;6.93;;;15.80;99.90;;;;;;5107536;27;20238;-68
2022/05/24 03:36:31;;;;;;;7.53;6.67;;;15.80;99.90;;;;;;5112138;27;20244;-67
2022/05/24 03:38:59;;;;;;;9.90;6.60;;;15.80;99.90;;;;;;5110894;27;21662;-68
2022/05/24 03:41:27;;;;;;;8.83;7.07;;;15.80;99.90;;;;;;5109507;27;20589;-68
2022/05/24 03:43:55;;;;;;;6.70;6.00;;;15.70;99.90;;;;;;5107482;27;20244;-65
2022/05/24 03:46:23;;;;;;;6.97;5.80;;;15.70;99.90;;;;;;5108260;27;20368;-68
2022/05/24 03:48:52;;;;;;;8.97;5.73;;;15.70;99.90;;;;;;5107685;27;20283;-65
2022/05/24 03:51:22;;;;;;;11.43;6.33;;;15.70;99.90;;;;;;5109623;27;20240;-68
2022/05/24 03:53:50;;;;;;;7.27;5.73;;;15.70;99.90;;;;;;5107439;27;20230;-66
2022/05/24 03:56:19;;;;;;;6.90;5.50;;;15.70;99.90;;;;;;5108474;27;20307;-68
2022/05/24 03:58:47;;;;;;;7.50;4.97;;;15.70;99.90;;;;;;5112310;27;20237;-65
2022/05/24 04:01:16;;;;;;;8.00;5.17;;;15.70;99.90;;;;;;5114138;27;20779;-67
2022/05/24 04:03:45;;;;;;;6.50;5.37;;;15.70;99.90;;;;;;5107868;27;20244;-66
2022/05/24 04:06:14;;;;;;;6.67;4.63;;;15.70;99.90;;;;;;5111587;27;20234;-67
2022/05/24 04:08:45;;;;;;;7.07;4.60;;;15.70;99.90;;;;;;5108880;27;20734;-65
2022/05/24 04:11:14;;;;;;;6.77;5.10;;;15.60;99.90;;;;;;5111178;27;20391;-66
2022/05/24 04:13:43;;;;;;;6.10;4.57;;;15.60;99.90;;;;;;5104757;27;20236;-66
2022/05/24 04:16:12;;;;;;;5.80;4.63;;;15.70;99.90;;;;;;5110351;27;20229;-67
2022/05/24 04:18:40;;;;;;;5.33;4.43;;;15.60;99.90;;;;;;5111940;27;20241;-68
2022/05/24 04:21:09;;;;;;;4.87;3.97;;;15.60;99.90;;;;;;5108305;27;20237;-67
2022/05/24 04:23:43;;;;;;;7.07;4.80;;;15.70;99.90;;;;;;5106690;27;20251;-67
2022/05/24 04:26:11;;;;;;;4.70;4.20;;;15.70;99.90;;;;;;5111656;27;20245;-65
2022/05/24 04:28:39;;;;;;;7.50;4.00;;;15.70;99.90;;;;;;5112741;27;20274;-67
2022/05/24 04:31:08;;;;;;;6.60;4.50;;;15.60;99.90;;;;;;5112798;27;20221;-68
2022/05/24 04:33:36;;;;;;;5.13;3.90;;;15.60;99.90;;;;;;5108675;27;20330;-68
2022/05/24 04:36:05;;;;;;;4.90;4.07;;;15.60;99.90;;;;;;5110987;27;20238;-67
2022/05/24 04:38:34;;;;;;;6.93;4.07;;;15.60;99.90;;;;;;5107602;27;20246;-65
2022/05/24 04:43:51;;;;;;;4.63;3.63;;;15.60;99.90;;;;;;5073044;27;20252;-67
2022/05/24 04:46:19;;;;;;;5.03;4.13;;;15.60;99.90;;;;;;5113722;27;20243;-67
2022/05/24 04:48:48;;;;;;;6.23;4.00;;;15.60;99.90;;;;;;5113057;27;20226;-68
2022/05/24 04:51:16;;;;;;;5.80;3.83;;;15.50;99.90;;;;;;5108308;27;20600;-64
2022/05/24 04:53:44;;;;;;;4.83;3.63;;;15.40;99.90;;;;;;5107105;27;20236;-67
2022/05/24 04:56:13;;;;;;;4.73;3.70;;;15.50;99.90;;;;;;5110370;27;20603;-64
2022/05/24 04:58:41;;;;;;;4.07;3.60;;;15.60;99.90;;;;;;5108824;27;20578;-68
2022/05/24 05:01:09;;;;;;;6.17;4.00;;;15.60;99.90;;;;;;5105357;27;20238;-68
2022/05/24 05:03:38;;;;;;;5.60;4.20;;;15.60;99.90;;;;;;5103036;27;20217;-68
2022/05/24 05:06:07;;;;;;;6.00;4.23;;;15.60;99.90;;;;;;5107231;27;20260;-68
2022/05/24 05:08:35;;;;;;;5.47;4.80;;;15.60;99.90;;;;;;5108102;27;20233;-67
2022/05/24 05:11:04;;;;;;;4.77;4.33;;;15.60;99.90;;;;;;5107775;27;21471;-66
2022/05/24 05:13:33;;;;;;;5.63;4.20;;;15.60;99.90;;;;;;5106446;27;20237;-67
2022/05/24 05:16:01;;;;;;;6.57;4.57;;;15.70;99.90;;;;;;5108707;27;20229;-67
2022/05/24 05:18:29;;;;;;;6.73;4.80;;;15.70;99.90;;;;;;5109577;27;20716;-67
2022/05/24 05:20:58;;;;;;;4.80;4.30;;;15.70;99.90;;;;;;5106581;27;20905;-68
2022/05/24 05:23:26;;;;;;;5.63;4.80;;;15.80;99.90;;;;;;5104635;27;20245;-67
2022/05/24 05:25:54;;;;;;;9.30;5.20;;;15.80;99.90;;;;;;5108859;27;20249;-67
2022/05/24 05:28:23;;;;;;;5.53;4.80;;;15.90;99.90;;;;;;5107950;27;20815;-67
2022/05/24 05:33:38;;;;;;;5.67;4.60;;;16.10;99.90;;;;;;5102833;27;20584;-68
2022/05/24 05:36:07;;;;;;;9.83;5.97;;;16.10;99.90;;;;;;5108650;27;20237;-66
2022/05/24 05:38:35;;;;;;;8.10;5.53;;;16.10;99.90;;;;;;5106520;27;20360;-68
2022/05/24 05:41:04;;;;;;;6.50;5.57;;;16.10;99.90;;;;;;5108135;27;20237;-66
2022/05/24 05:43:32;;;;;;;7.80;5.50;;;16.10;99.90;;;;;;5102957;27;20253;-67
2022/05/24 05:46:07;;;;;;;5.90;5.30;;;16.20;99.90;;;;;;5106760;27;20622;-66
2022/05/24 05:48:35;;;;;;;10.87;5.53;;;16.20;99.90;;;;;;5109507;27;20240;-66
2022/05/24 05:51:05;;;;;;;5.70;5.10;;;16.20;99.90;;;;;;5111792;27;20303;-67
2022/05/24 05:53:34;;;;;;;7.60;5.37;;;16.20;99.90;;;;;;5106335;27;20230;-67
2022/05/24 05:56:03;;;;;;;6.33;5.67;;;16.30;99.90;;;;;;5107534;27;20324;-67
2022/05/24 05:58:32;;;;;;;6.50;5.80;;;16.30;99.90;;;;;;5109127;27;20233;-68
2022/05/24 06:01:01;;;;;;;6.07;5.43;;;16.50;99.90;;;;;;5109517;27;20324;-66
2022/05/24 06:03:31;;;;;;;5.90;5.07;;;16.70;99.90;;;;;;5103981;27;20247;-67
2022/05/24 06:06:00;;;;;;;6.70;5.20;;;16.90;99.90;;;;;;5107706;27;20238;-65
2022/05/24 06:08:28;;;;;;;5.37;4.83;;;17.00;99.90;;;;;;5106601;28;20245;-67
2022/05/24 06:10:57;;;;;;;7.27;5.57;;;17.00;99.90;;;;;;5107392;27;20280;-67
2022/05/24 06:13:25;;;;;;;5.87;5.23;;;17.00;99.90;;;;;;5104885;28;20233;-68
2022/05/24 06:15:56;;;;;;;6.70;5.57;;;17.00;99.90;;;;;;5105106;27;20244;-67
2022/05/24 06:18:24;;;;;;;7.80;6.30;;;17.00;99.90;;;;;;5106991;28;20265;-67
2022/05/24 06:20:54;;;;;;;7.80;6.40;;;16.90;99.90;;;;;;5107350;28;20221;-67
2022/05/24 06:23:25;;;;;;;8.30;7.03;;;16.80;99.90;;;;;;5107183;28;20242;-66
2022/05/24 06:25:54;;;;;;;8.80;7.70;;;16.70;99.90;;;;;;5107136;28;20225;-68
2022/05/24 06:28:23;;;;;;;9.63;7.67;;;16.70;99.90;;;;;;5106347;28;20593;-67
2022/05/24 06:30:51;;;;;;;9.43;8.53;;;16.80;99.90;;;;;;5106164;28;20261;-68
2022/05/24 06:33:20;;;;;;;10.67;9.57;;;17.10;99.90;;;;;;5103841;28;20775;-68
2022/05/24 06:35:48;;;;;;;14.20;9.60;;;17.20;99.90;;;;;;5107866;28;20302;-68
2022/05/24 06:38:18;;;;;;;10.80;9.80;;;17.20;99.90;;;;;;5106051;28;21092;-65
2022/05/24 06:40:46;;;;;;;10.83;9.83;;;17.30;99.90;;;;;;5107427;28;20282;-67
2022/05/24 06:43:15;;;;;;;10.80;9.73;;;17.20;99.90;;;;;;5106183;27;20245;-67
2022/05/24 06:45:44;;;;;;;12.03;10.77;;;17.10;99.90;;;;;;5096707;27;20317;-68
2022/05/24 06:48:13;;;;;;;12.10;10.90;;;17.20;99.90;;;;;;5110135;27;20728;-68
2022/05/24 06:50:42;;;;;;;12.30;11.13;;;17.20;99.90;;;;;;5109667;27;20226;-68
2022/05/24 06:53:11;;;;;;;11.27;10.20;;;17.30;99.90;;;;;;5106629;27;20739;-68
2022/05/24 06:55:40;;;;;;;12.33;11.13;;;17.50;99.90;;;;;;5109789;27;20721;-65
2022/05/24 06:58:09;;;;;;;12.47;11.27;;;17.60;99.90;;;;;;5113455;27;20708;-67
2022/05/24 07:03:30;;;;;;;14.13;12.73;;;17.60;99.90;;;;;;5108067;27;20240;-67
2022/05/24 07:05:58;;;;;;;13.40;12.20;;;17.60;99.90;;;;;;5110158;27;20913;-68
2022/05/24 07:08:27;;;;;;;14.17;12.77;;;17.50;99.90;;;;;;5109840;27;20239;-65
2022/05/24 07:10:56;;;;;;;15.00;13.50;;;17.50;99.90;;;;;;5112103;27;20238;-67
2022/05/24 07:13:24;;;;;;;15.63;14.03;;;17.50;99.90;;;;;;5111332;27;20602;-66
2022/05/24 07:15:55;;;;;;;17.60;14.67;;;17.40;99.90;;;;;;5114392;27;20245;-68
2022/05/24 07:18:26;;;;;;;17.00;15.30;;;17.30;99.90;;;;;;5114336;27;20727;-67
2022/05/24 07:20:55;;;;;;;18.27;16.50;;;17.40;99.90;;;;;;5115899;27;20724;-67
2022/05/24 07:23:24;;;;;;;18.03;16.20;;;17.50;99.90;;;;;;5112980;27;20265;-64
2022/05/24 07:25:53;;;;;;;18.17;16.43;;;17.60;99.90;;;;;;5112721;27;20315;-67
2022/05/24 07:28:24;;;;;;;16.90;15.10;;;17.70;99.90;;;;;;5113756;27;20334;-67
2022/05/24 07:30:53;;;;;;;16.77;15.17;;;17.70;99.90;;;;;;5115177;27;21385;-66
2022/05/24 07:33:21;;;;;;;14.70;13.30;;;17.80;99.90;;;;;;5107593;27;20577;-66
2022/05/24 07:35:49;;;;;;;15.03;13.53;;;17.90;99.90;;;;;;5109841;27;20295;-68
2022/05/24 07:38:17;;;;;;;14.67;13.27;;;18.00;99.90;;;;;;5113404;27;20235;-66
2022/05/24 07:46:32;;;;;;;14.90;13.30;;;18.10;99.90;;;;;;5108717;27;20238;-66
2022/05/24 07:49:01;;;;;;;16.40;14.20;;;18.20;99.90;;;;;;5107708;27;20240;-65
2022/05/24 07:51:29;;;;;;;14.73;13.27;;;18.50;99.90;;;;;;5109529;27;20244;-65
2022/05/24 07:53:57;;;;;;;15.60;14.00;;;18.50;99.90;;;;;;5108322;27;20235;-68
2022/05/24 07:56:26;;;;;;;15.70;13.57;;;18.30;99.90;;;;;;5110823;27;20236;-68
2022/05/24 07:58:55;;;;;;;14.93;13.50;;;18.30;99.90;;;;;;5110894;27;20226;-68
2022/05/24 08:01:24;;;;;;;14.50;12.93;;;18.30;99.90;;;;;;5113698;27;20709;-68
2022/05/24 08:03:52;;;;;;;14.30;12.80;;;18.60;99.90;;;;;;5111174;27;20227;-69
2022/05/24 08:06:21;;;;;;;15.27;13.60;;;18.50;99.90;;;;;;5109174;27;20314;-69
2022/05/24 08:08:49;;;;;;;14.67;12.60;;;18.40;99.90;;;;;;5110856;27;20353;-66
2022/05/24 08:11:17;;;;;;;14.37;13.07;;;18.40;99.90;;;;;;5111624;27;20273;-68
2022/05/24 08:13:45;;;;;;;13.83;12.47;;;18.40;99.90;;;;;;5111142;27;20235;-67
2022/05/24 08:16:15;;;;;;;14.60;13.10;;;18.50;99.90;;;;;;5113943;27;20247;-69
2022/05/24 08:18:44;;;;;;;14.77;13.27;;;18.50;99.90;;;;;;5115409;27;20239;-68
2022/05/24 08:21:12;;;;;;;14.13;12.70;;;18.50;99.90;;;;;;5114121;27;20377;-69
2022/05/24 08:23:40;;;;;;;14.57;12.97;;;18.20;99.90;;;;;;5110159;27;20235;-69
2022/05/24 08:26:09;;;;;;;15.70;14.10;;;18.10;99.90;;;;;;5109823;27;20248;-68
2022/05/24 08:28:37;;;;;;;17.90;14.03;;;18.00;99.90;;;;;;5108255;27;20741;-68
2022/05/24 08:31:08;;;;;;;15.60;14.00;;;18.00;99.90;;;;;;5108036;27;20895;-68
2022/05/24 08:33:40;;;;;;;16.40;14.60;;;18.00;99.90;;;;;;5108198;27;20725;-69
2022/05/24 08:36:09;;;;;;;15.87;14.27;;;18.00;99.90;;;;;;5113252;27;20266;-68
2022/05/24 08:38:37;;;;;;;15.83;13.93;;;18.00;99.90;;;;;;5108265;27;20234;-68
2022/05/24 08:41:11;;;;;;;16.87;15.10;;;17.90;99.90;;;;;;5108405;27;20243;-69
2022/05/24 08:43:52;;;;;;;19.37;16.77;;;17.60;99.90;;;;;;5107840;27;20231;-67
2022/05/24 08:49:17;;;;;;;18.60;16.70;;;17.20;99.90;;;;;;5110383;27;20329;-68
2022/05/24 08:51:50;;;;;;;18.67;16.53;;;17.00;99.90;;;;;;5106602;27;20242;-66
2022/05/24 08:54:21;;;;;;;18.37;16.47;;;17.00;99.90;;;;;;5107624;27;20718;-68
2022/05/24 08:56:52;;;;;;;19.70;17.67;;;16.90;99.90;;;;;;5110173;27;21070;-67
2022/05/24 08:59:26;;;;;;;19.60;17.60;;;16.90;99.90;;;;;;5108859;27;20624;-68
2022/05/24 09:01:56;;;;;;;20.87;18.67;;;17.00;99.90;;;;;;5110775;27;20290;-66
2022/05/24 09:04:25;;;;;;;19.90;17.60;;;17.00;99.90;;;;;;5106501;27;20238;-68
2022/05/24 09:07:01;;;;;;;21.57;17.53;;;17.00;99.90;;;;;;5107518;27;20322;-67
2022/05/24 09:09:46;;;;;;;20.43;18.23;;;17.00;99.90;;;;;;5107037;27;20265;-66
2022/05/24 09:12:45;;;;;;;22.90;18.53;;;17.10;99.90;;;;;;5107107;27;20277;-67
2022/05/24 09:15:22;;;;;;;20.03;17.40;;;17.30;99.90;;;;;;5100656;27;20243;-68
2022/05/24 09:18:02;;;;;;;21.20;17.53;;;17.30;99.90;;;;;;5109252;27;20237;-69
2022/05/24 09:20:35;;;;;;;20.10;17.60;;;17.20;99.90;;;;;;5108298;27;20287;-67
2022/05/24 09:23:09;;;;;;;18.60;16.67;;;17.10;99.90;;;;;;5105242;27;20639;-65
2022/05/24 09:25:53;;;;;;;20.60;17.90;;;17.10;99.90;;;;;;5107642;27;20284;-67
2022/05/24 09:28:43;;;;;;;20.97;18.73;;;17.10;99.90;;;;;;5107980;27;20332;-68
2022/05/24 09:31:18;;;;;;;22.63;19.10;;;16.90;99.90;;;;;;5111248;27;20247;-68
2022/05/24 09:33:47;;;;;;;20.27;18.07;;;16.90;99.90;;;;;;5112652;27;20332;-67
2022/05/24 09:36:35;;;;;;;19.60;17.53;;;16.70;99.90;;;;;;5111071;27;20752;-68
2022/05/24 09:39:06;;;;;;;19.80;17.70;;;16.50;99.90;;;;;;5114252;27;20295;-68
2022/05/24 09:41:35;;;;;;;19.97;17.97;;;16.50;99.90;;;;;;5111840;27;20241;-68
2022/05/24 09:44:06;;;;;;;20.10;17.93;;;16.50;99.90;;;;;;5109169;27;20237;-68
2022/05/24 09:46:37;;;;;;;20.73;18.63;;;16.50;99.90;;;;;;5105368;27;20242;-68
2022/05/24 09:49:24;;;;;;;21.37;18.80;;;16.50;99.90;;;;;;5107969;27;20246;-65
2022/05/24 09:51:56;;;;;;;23.07;20.67;;;16.60;99.90;;;;;;5112169;27;20244;-68
2022/05/24 09:54:28;;;;;;;22.77;20.37;;;16.70;99.90;;;;;;5107120;27;20273;-67
2022/05/24 09:57:04;;;;;;;23.27;20.83;;;16.70;99.90;;;;;;5106282;27;20233;-68
2022/05/24 09:59:33;;;;;;;24.07;21.43;;;16.80;99.90;;;;;;5108479;27;20229;-67
2022/05/24 10:02:02;;;;;;;25.00;21.57;;;16.70;99.90;;;;;;5106878;27;20299;-66
2022/05/24 10:04:35;;;;;;;24.63;21.67;;;16.70;99.90;;;;;;5103351;27;20792;-66
2022/05/24 10:07:21;;;;;;;25.90;22.33;;;16.50;99.90;;;;;;5107576;27;20257;-68
2022/05/24 10:09:58;;;;;;;24.87;21.80;;;16.50;99.90;;;;;;5109652;27;20728;-67
2022/05/24 10:12:44;;;;;;;25.20;22.60;;;16.50;99.90;;;;;;5111004;27;20333;-68
2022/05/24 10:15:21;;;;;;;24.03;21.57;;;16.50;99.90;;;;;;5108248;27;20598;-68
2022/05/24 10:18:08;;;;;;;25.37;21.70;;;16.40;99.90;;;;;;5105832;27;20642;-68
2022/05/24 10:20:47;;;;;;;23.13;20.83;;;16.40;99.90;;;;;;5107075;28;20241;-67
2022/05/24 10:23:29;;;;;;;23.87;21.07;;;16.40;99.90;;;;;;5103391;28;21253;-68
2022/05/24 10:26:10;;;;;;;22.43;19.93;;;16.30;99.90;;;;;;5108117;28;20283;-67
2022/05/24 10:28:44;;;;;;;21.10;18.90;;;16.20;99.90;;;;;;5109447;28;20768;-67
2022/05/24 10:31:24;;;;;;;21.40;19.17;;;16.10;99.90;;;;;;5105848;28;20775;-68
2022/05/24 10:40:07;;;;;;;17.23;14.63;;;15.90;99.90;;;;;;5064468;28;20246;-68
2022/05/24 10:42:51;;;;;;;16.30;14.57;;;15.90;99.90;;;;;;5070253;28;20270;-67
2022/05/24 10:45:49;;;;;;;16.33;14.63;;;16.10;99.90;;;;;;5068933;28;20231;-68
2022/05/24 10:48:48;;;;;;;16.03;14.33;;;16.20;99.90;;;;;;5071981;28;20300;-69
2022/05/24 10:51:26;;;;;;;15.37;13.80;;;16.50;99.90;;;;;;5068761;28;20235;-68
2022/05/24 10:54:02;;;;;;;16.03;14.47;;;16.60;99.90;;;;;;5065226;28;20235;-68
2022/05/24 10:56:38;;;;;;;16.50;14.47;;;16.70;99.90;;;;;;5066481;28;20239;-68
2022/05/24 10:59:18;;;;;;;15.77;14.10;;;16.90;99.90;;;;;;5065198;28;20247;-67
2022/05/24 11:01:51;;;;;;;16.53;14.40;;;16.90;99.90;;;;;;5066227;28;20697;-68
2022/05/24 11:04:26;;;;;;;16.37;14.03;;;16.80;99.90;;;;;;5062031;28;20275;-69
2022/05/24 11:07:00;;;;;;;14.93;13.47;;;16.80;99.90;;;;;;5069306;28;21034;-66
2022/05/24 11:09:32;;;;;;;14.27;12.97;;;16.90;99.90;;;;;;5068580;28;20792;-66
2022/05/24 11:12:07;;;;;;;15.43;13.57;;;16.90;99.90;;;;;;5068210;28;20239;-65
2022/05/24 11:14:41;;;;;;;16.07;14.33;;;16.90;99.90;;;;;;5064044;28;20239;-68
2022/05/24 11:17:11;;;;;;;15.97;12.80;;;17.00;99.90;;;;;;5066065;28;20302;-68
2022/05/24 11:19:45;;;;;;;14.30;12.90;;;17.10;99.90;;;;;;5065441;28;20231;-68
2022/05/24 11:22:22;;;;;;;14.30;12.90;;;17.20;99.90;;;;;;5065397;28;20250;-68
2022/05/24 11:24:56;;;;;;;13.97;12.57;;;17.30;99.90;;;;;;5062921;28;20557;-68
2022/05/24 11:27:30;;;;;;;15.37;12.67;;;17.40;99.90;;;;;;5065480;28;20262;-68
2022/05/24 11:30:02;;;;;;;13.20;11.90;;;17.60;99.90;;;;;;5068391;28;20234;-68
2022/05/24 11:32:35;;;;;;;13.07;11.67;;;17.90;99.90;;;;;;5088941;27;20765;-67
2022/05/24 11:35:08;;;;;;;12.60;11.43;;;18.10;99.90;;;;;;5110246;27;20239;-68
2022/05/24 11:37:39;;;;;;;13.33;11.93;;;18.30;99.90;;;;;;5111376;27;20238;-68
2022/05/24 11:40:31;;;;;;;13.60;12.20;;;18.40;99.90;;;;;;5110903;27;20295;-67
2022/05/24 11:43:03;;;;;;;14.30;12.70;;;18.30;99.90;;;;;;5109839;27;20245;-67
2022/05/24 11:45:55;;;;;;;15.03;11.30;;;18.50;99.90;;;;;;5109915;27;20275;-67
2022/05/24 11:48:45;;;;;;;14.83;11.37;;;18.80;99.90;;;;;;5110994;27;20270;-68
2022/05/24 11:51:39;;;;;;;15.17;12.73;;;18.70;99.90;;;;;;5109663;27;20283;-69
2022/05/24 11:54:24;;;;;;;13.07;11.83;;;18.70;99.90;;;;;;5092528;27;20274;-68
2022/05/24 11:56:53;;;;;;;13.90;11.73;;;18.70;99.90;;;;;;5112130;27;20318;-66
2022/05/24 11:59:51;;;;;;;13.57;11.87;;;18.60;99.90;;;;;;5115682;27;20822;-68
2022/05/24 12:09:12;;;;;;;10.43;9.43;;;19.50;99.90;;;;;;5113842;27;20289;-68
2022/05/24 12:11:41;;;;;;;9.37;8.47;;;19.50;99.90;;;;;;5111515;27;20228;-68
2022/05/24 12:14:20;;;;;;;10.20;8.03;;;19.40;99.90;;;;;;5109156;27;20228;-68
2022/05/24 12:17:12;;;;;;;9.97;8.97;;;19.60;99.90;;;;;;5112028;27;20251;-67
2022/05/24 12:19:52;;;;;;;12.33;8.67;;;19.60;99.90;;;;;;5110918;27;20248;-67
2022/05/24 12:22:26;;;;;;;9.43;8.40;;;19.90;99.90;;;;;;5107441;27;20302;-67
2022/05/24 12:25:00;;;;;;;10.10;8.23;;;19.80;99.90;;;;;;5107604;27;20238;-68
2022/05/24 12:27:55;;;;;;;9.93;8.10;;;19.80;99.90;;;;;;5110013;27;20239;-67
2022/05/24 12:30:43;;;;;;;9.03;7.63;;;19.50;99.90;;;;;;5108787;27;20591;-67
2022/05/24 12:33:18;;;;;;;9.67;8.10;;;19.60;99.90;;;;;;5107493;27;20300;-68
2022/05/24 12:35:57;;;;;;;9.50;8.50;;;19.60;99.90;;;;;;5110734;27;20236;-67
2022/05/24 12:38:28;;;;;;;9.27;8.27;;;19.70;99.90;;;;;;5106623;27;20276;-67
2022/05/24 12:41:16;;;;;;;14.40;7.93;;;19.80;99.90;;;;;;5105353;27;20244;-67
2022/05/24 12:44:12;;;;;;;11.13;7.67;;;19.80;99.90;;;;;;5106955;27;20319;-68
2022/05/24 12:46:54;;;;;;;8.77;6.70;;;19.50;99.90;;;;;;5107621;27;20268;-67
2022/05/24 12:49:26;;;;;;;9.10;7.17;;;19.40;99.90;;;;;;5110089;27;20304;-68
2022/05/24 12:51:56;;;;;;;10.17;8.00;;;19.40;99.90;;;;;;5109042;27;20267;-67
2022/05/24 12:54:31;;;;;;;7.63;6.93;;;19.20;99.90;;;;;;5105882;27;20244;-67
2022/05/24 12:57:02;;;;;;;8.00;6.10;;;19.20;99.90;;;;;;5110717;27;20231;-68
2022/05/24 12:59:37;;;;;;;8.97;6.33;;;19.50;99.90;;;;;;5106743;27;20240;-67
2022/05/24 13:02:31;;;;;;;7.93;6.17;;;19.70;99.90;;;;;;5110485;27;20309;-68
2022/05/24 13:05:09;;;;;;;6.93;5.67;;;19.80;99.90;;;;;;5106640;27;21441;-68
2022/05/24 13:07:41;;;;;;;6.90;5.63;;;19.80;99.90;;;;;;5109830;27;20274;-68
2022/05/24 13:10:24;;;;;;;6.20;5.60;;;19.80;99.90;;;;;;5109521;27;20294;-68
2022/05/24 13:12:56;;;;;;;7.27;6.17;;;19.90;99.90;;;;;;5105919;27;20327;-67
2022/05/24 13:15:30;;;;;;;7.37;6.43;;;20.00;99.90;;;;;;5109412;27;20241;-68
2022/05/24 13:18:03;;;;;;;14.37;6.67;;;20.00;99.90;;;;;;5107306;27;21424;-68
2022/05/24 13:20:36;;;;;;;9.73;6.47;;;19.90;99.90;;;;;;5109012;27;20247;-66
2022/05/24 13:23:07;;;;;;;7.17;6.37;;;19.70;99.90;;;;;;5103983;27;20941;-66
2022/05/24 13:25:47;;;;;;;11.43;6.53;;;19.60;99.90;;;;;;5106955;27;20331;-69
2022/05/24 13:28:41;;;;;;;7.17;6.47;;;19.60;99.90;;;;;;5107886;27;20569;-68
2022/05/24 13:34:01;;;;;;;6.97;6.23;;;19.80;99.90;;;;;;5104782;27;20284;-70
2022/05/24 13:36:41;;;;;;;7.50;6.60;;;19.90;99.90;;;;;;5106185;27;20244;-68
2022/05/24 13:39:17;;;;;;;8.03;6.30;;;20.00;99.90;;;;;;5106670;27;20289;-70
2022/05/24 13:41:54;;;;;;;6.23;5.73;;;20.10;99.90;;;;;;5108254;27;20309;-70
2022/05/24 13:45:02;;;;;;;6.80;6.10;;;20.00;99.90;;;;;;5105506;27;21347;-70
2022/05/24 13:47:35;;;;;;;8.40;6.03;;;19.90;99.90;;;;;;5109106;27;20235;-69
2022/05/24 13:50:22;;;;;;;7.80;5.70;;;19.60;99.90;;;;;;5100251;27;20244;-70
2022/05/24 13:52:57;;;;;;;6.63;5.30;;;19.50;99.90;;;;;;5096955;27;20769;-70